sensor_id;sensor_type;location;lat;lon;timestamp;P1;durP1;ratioP1;P2;durP2;ratioP2
70545;SDS011;58098;51.680;5.134;2023-04-06T00:01:57;24.50;;;12.23;;
70545;SDS011;58098;51.680;5.134;2023-04-06T00:04:22;21.83;;;12.00;;
70545;SDS011;58098;51.680;5.134;2023-04-06T00:06:47;19.80;;;11.20;;
70545;SDS011;58098;51.680;5.134;2023-04-06T00:09:12;21.03;;;11.37;;
70545;SDS011;58098;51.680;5.134;2023-04-06T00:11:37;21.63;;;11.20;;
70545;SDS011;58098;51.680;5.134;2023-04-06T00:14:03;21.33;;;10.47;;
70545;SDS011;58098;51.680;5.134;2023-04-06T00:16:28;22.90;;;11.97;;
70545;SDS011;58098;51.680;5.134;2023-04-06T00:18:53;21.57;;;11.20;;
70545;SDS011;58098;51.680;5.134;2023-04-06T00:21:18;21.83;;;12.13;;
70545;SDS011;58098;51.680;5.134;2023-04-06T00:23:44;23.23;;;11.67;;
70545;SDS011;58098;51.680;5.134;2023-04-06T00:26:09;20.03;;;11.57;;
70545;SDS011;58098;51.680;5.134;2023-04-06T00:28:36;19.40;;;11.63;;
70545;SDS011;58098;51.680;5.134;2023-04-06T00:31:01;23.77;;;12.40;;
70545;SDS011;58098;51.680;5.134;2023-04-06T00:33:26;25.47;;;13.17;;
70545;SDS011;58098;51.680;5.134;2023-04-06T00:35:52;22.27;;;12.67;;
70545;SDS011;58098;51.680;5.134;2023-04-06T00:38:17;20.47;;;12.47;;
70545;SDS011;58098;51.680;5.134;2023-04-06T00:40:42;23.13;;;12.60;;
70545;SDS011;58098;51.680;5.134;2023-04-06T00:43:09;25.33;;;12.68;;
70545;SDS011;58098;51.680;5.134;2023-04-06T00:45:34;21.33;;;11.80;;
70545;SDS011;58098;51.680;5.134;2023-04-06T00:48:00;20.00;;;11.10;;
70545;SDS011;58098;51.680;5.134;2023-04-06T00:50:26;22.58;;;12.18;;
70545;SDS011;58098;51.680;5.134;2023-04-06T00:52:51;22.13;;;11.20;;
70545;SDS011;58098;51.680;5.134;2023-04-06T00:55:17;24.30;;;12.00;;
70545;SDS011;58098;51.680;5.134;2023-04-06T00:57:42;22.53;;;11.67;;
70545;SDS011;58098;51.680;5.134;2023-04-06T01:00:08;18.40;;;10.93;;
70545;SDS011;58098;51.680;5.134;2023-04-06T01:02:33;22.57;;;11.70;;
70545;SDS011;58098;51.680;5.134;2023-04-06T01:04:58;24.67;;;11.53;;
70545;SDS011;58098;51.680;5.134;2023-04-06T01:07:23;24.10;;;12.83;;
70545;SDS011;58098;51.680;5.134;2023-04-06T01:09:49;21.83;;;12.00;;
70545;SDS011;58098;51.680;5.134;2023-04-06T01:12:15;23.75;;;11.75;;
70545;SDS011;58098;51.680;5.134;2023-04-06T01:14:40;19.70;;;11.60;;
70545;SDS011;58098;51.680;5.134;2023-04-06T01:17:05;20.43;;;11.50;;
70545;SDS011;58098;51.680;5.134;2023-04-06T01:19:31;25.57;;;11.07;;
70545;SDS011;58098;51.680;5.134;2023-04-06T01:21:56;21.93;;;12.37;;
70545;SDS011;58098;51.680;5.134;2023-04-06T01:24:21;23.70;;;12.10;;
70545;SDS011;58098;51.680;5.134;2023-04-06T01:26:47;22.13;;;11.57;;
70545;SDS011;58098;51.680;5.134;2023-04-06T01:29:12;22.17;;;11.20;;
70545;SDS011;58098;51.680;5.134;2023-04-06T01:31:38;21.37;;;12.00;;
70545;SDS011;58098;51.680;5.134;2023-04-06T01:34:03;23.13;;;11.87;;
70545;SDS011;58098;51.680;5.134;2023-04-06T01:36:28;19.93;;;11.83;;
70545;SDS011;58098;51.680;5.134;2023-04-06T01:38:53;24.87;;;12.13;;
70545;SDS011;58098;51.680;5.134;2023-04-06T01:41:19;19.30;;;11.13;;
70545;SDS011;58098;51.680;5.134;2023-04-06T01:43:45;21.37;;;11.30;;
70545;SDS011;58098;51.680;5.134;2023-04-06T01:46:10;23.37;;;11.43;;
70545;SDS011;58098;51.680;5.134;2023-04-06T01:48:35;23.63;;;12.07;;
70545;SDS011;58098;51.680;5.134;2023-04-06T01:51:01;20.95;;;10.82;;
70545;SDS011;58098;51.680;5.134;2023-04-06T01:53:26;19.37;;;11.20;;
70545;SDS011;58098;51.680;5.134;2023-04-06T01:55:51;21.37;;;11.63;;
70545;SDS011;58098;51.680;5.134;2023-04-06T01:58:16;21.60;;;10.67;;
70545;SDS011;58098;51.680;5.134;2023-04-06T02:00:42;18.83;;;11.03;;
70545;SDS011;58098;51.680;5.134;2023-04-06T02:03:07;22.13;;;11.53;;
70545;SDS011;58098;51.680;5.134;2023-04-06T02:05:32;20.63;;;11.60;;
70545;SDS011;58098;51.680;5.134;2023-04-06T02:08:05;20.50;;;11.43;;
70545;SDS011;58098;51.680;5.134;2023-04-06T02:10:31;21.03;;;11.57;;
70545;SDS011;58098;51.680;5.134;2023-04-06T02:12:56;23.95;;;11.82;;
70545;SDS011;58098;51.680;5.134;2023-04-06T02:15:21;20.10;;;11.00;;
70545;SDS011;58098;51.680;5.134;2023-04-06T02:17:46;19.33;;;11.67;;
70545;SDS011;58098;51.680;5.134;2023-04-06T02:20:12;20.27;;;12.37;;
70545;SDS011;58098;51.680;5.134;2023-04-06T02:22:37;22.70;;;11.60;;
70545;SDS011;58098;51.680;5.134;2023-04-06T02:25:02;20.93;;;11.77;;
70545;SDS011;58098;51.680;5.134;2023-04-06T02:27:28;22.63;;;12.17;;
70545;SDS011;58098;51.680;5.134;2023-04-06T02:29:53;21.53;;;12.40;;
70545;SDS011;58098;51.680;5.134;2023-04-06T02:32:18;21.73;;;12.50;;
70545;SDS011;58098;51.680;5.134;2023-04-06T02:34:43;23.10;;;12.83;;
70545;SDS011;58098;51.680;5.134;2023-04-06T02:37:08;22.00;;;12.10;;
70545;SDS011;58098;51.680;5.134;2023-04-06T02:39:34;21.60;;;12.60;;
70545;SDS011;58098;51.680;5.134;2023-04-06T02:41:59;23.17;;;12.90;;
70545;SDS011;58098;51.680;5.134;2023-04-06T02:44:24;22.70;;;11.90;;
70545;SDS011;58098;51.680;5.134;2023-04-06T02:46:50;26.30;;;13.37;;
70545;SDS011;58098;51.680;5.134;2023-04-06T02:49:15;25.43;;;12.53;;
70545;SDS011;58098;51.680;5.134;2023-04-06T02:51:41;25.57;;;13.53;;
70545;SDS011;58098;51.680;5.134;2023-04-06T02:54:06;23.60;;;13.13;;
70545;SDS011;58098;51.680;5.134;2023-04-06T02:56:31;24.90;;;12.53;;
70545;SDS011;58098;51.680;5.134;2023-04-06T02:58:56;24.97;;;12.90;;
70545;SDS011;58098;51.680;5.134;2023-04-06T03:01:21;24.73;;;13.23;;
70545;SDS011;58098;51.680;5.134;2023-04-06T03:03:47;23.50;;;12.93;;
70545;SDS011;58098;51.680;5.134;2023-04-06T03:06:12;23.55;;;12.25;;
70545;SDS011;58098;51.680;5.134;2023-04-06T03:08:37;27.20;;;12.87;;
70545;SDS011;58098;51.680;5.134;2023-04-06T03:11:02;24.33;;;13.13;;
70545;SDS011;58098;51.680;5.134;2023-04-06T03:13:28;24.70;;;13.40;;
70545;SDS011;58098;51.680;5.134;2023-04-06T03:15:53;23.20;;;12.10;;
70545;SDS011;58098;51.680;5.134;2023-04-06T03:18:20;25.00;;;12.80;;
70545;SDS011;58098;51.680;5.134;2023-04-06T03:20:46;22.33;;;12.73;;
70545;SDS011;58098;51.680;5.134;2023-04-06T03:23:12;22.35;;;12.25;;
70545;SDS011;58098;51.680;5.134;2023-04-06T03:25:37;26.07;;;13.67;;
70545;SDS011;58098;51.680;5.134;2023-04-06T03:28:04;26.27;;;13.77;;
70545;SDS011;58098;51.680;5.134;2023-04-06T03:30:29;24.67;;;12.53;;
70545;SDS011;58098;51.680;5.134;2023-04-06T03:32:54;25.93;;;12.83;;
70545;SDS011;58098;51.680;5.134;2023-04-06T03:35:20;24.43;;;12.70;;
70545;SDS011;58098;51.680;5.134;2023-04-06T03:37:45;26.20;;;13.60;;
70545;SDS011;58098;51.680;5.134;2023-04-06T03:40:10;25.10;;;13.23;;
70545;SDS011;58098;51.680;5.134;2023-04-06T03:42:36;25.73;;;12.80;;
70545;SDS011;58098;51.680;5.134;2023-04-06T03:45:01;29.35;;;14.05;;
70545;SDS011;58098;51.680;5.134;2023-04-06T03:47:26;21.73;;;12.17;;
70545;SDS011;58098;51.680;5.134;2023-04-06T03:49:51;24.57;;;13.97;;
70545;SDS011;58098;51.680;5.134;2023-04-06T03:52:16;23.97;;;13.90;;
70545;SDS011;58098;51.680;5.134;2023-04-06T03:54:42;27.10;;;13.40;;
70545;SDS011;58098;51.680;5.134;2023-04-06T03:57:07;25.37;;;13.23;;
70545;SDS011;58098;51.680;5.134;2023-04-06T03:59:32;24.30;;;13.05;;
70545;SDS011;58098;51.680;5.134;2023-04-06T04:01:57;26.60;;;13.87;;
70545;SDS011;58098;51.680;5.134;2023-04-06T04:04:22;25.57;;;13.83;;
70545;SDS011;58098;51.680;5.134;2023-04-06T04:06:47;23.73;;;13.63;;
70545;SDS011;58098;51.680;5.134;2023-04-06T04:09:13;26.23;;;13.37;;
70545;SDS011;58098;51.680;5.134;2023-04-06T04:11:38;28.60;;;14.27;;
70545;SDS011;58098;51.680;5.134;2023-04-06T04:14:03;26.73;;;13.30;;
70545;SDS011;58098;51.680;5.134;2023-04-06T04:16:29;30.83;;;13.73;;
70545;SDS011;58098;51.680;5.134;2023-04-06T04:18:54;26.60;;;13.50;;
70545;SDS011;58098;51.680;5.134;2023-04-06T04:21:19;23.83;;;13.37;;
70545;SDS011;58098;51.680;5.134;2023-04-06T04:23:45;25.63;;;14.17;;
70545;SDS011;58098;51.680;5.134;2023-04-06T04:26:10;24.53;;;13.07;;
70545;SDS011;58098;51.680;5.134;2023-04-06T04:28:35;24.73;;;13.93;;
70545;SDS011;58098;51.680;5.134;2023-04-06T04:31:00;27.47;;;14.07;;
70545;SDS011;58098;51.680;5.134;2023-04-06T04:33:25;28.37;;;13.87;;
70545;SDS011;58098;51.680;5.134;2023-04-06T04:35:51;26.37;;;13.33;;
70545;SDS011;58098;51.680;5.134;2023-04-06T04:38:16;24.73;;;13.33;;
70545;SDS011;58098;51.680;5.134;2023-04-06T04:40:41;25.13;;;13.70;;
70545;SDS011;58098;51.680;5.134;2023-04-06T04:43:06;27.93;;;14.57;;
70545;SDS011;58098;51.680;5.134;2023-04-06T04:45:31;26.20;;;13.87;;
70545;SDS011;58098;51.680;5.134;2023-04-06T04:47:57;24.87;;;13.43;;
70545;SDS011;58098;51.680;5.134;2023-04-06T04:50:22;24.00;;;13.97;;
70545;SDS011;58098;51.680;5.134;2023-04-06T04:52:47;23.60;;;13.17;;
70545;SDS011;58098;51.680;5.134;2023-04-06T04:55:12;27.75;;;13.43;;
70545;SDS011;58098;51.680;5.134;2023-04-06T04:57:38;24.47;;;13.80;;
70545;SDS011;58098;51.680;5.134;2023-04-06T05:00:03;25.20;;;13.53;;
70545;SDS011;58098;51.680;5.134;2023-04-06T05:02:28;28.13;;;13.40;;
70545;SDS011;58098;51.680;5.134;2023-04-06T05:04:54;24.70;;;13.30;;
70545;SDS011;58098;51.680;5.134;2023-04-06T05:07:19;32.60;;;13.73;;
70545;SDS011;58098;51.680;5.134;2023-04-06T05:09:45;28.13;;;13.60;;
70545;SDS011;58098;51.680;5.134;2023-04-06T05:12:11;29.73;;;14.30;;
70545;SDS011;58098;51.680;5.134;2023-04-06T05:14:36;28.30;;;13.30;;
70545;SDS011;58098;51.680;5.134;2023-04-06T05:17:01;27.63;;;14.30;;
70545;SDS011;58098;51.680;5.134;2023-04-06T05:19:26;27.50;;;13.57;;
70545;SDS011;58098;51.680;5.134;2023-04-06T05:21:52;23.60;;;12.83;;
70545;SDS011;58098;51.680;5.134;2023-04-06T05:24:17;27.87;;;13.57;;
70545;SDS011;58098;51.680;5.134;2023-04-06T05:26:42;28.47;;;14.40;;
70545;SDS011;58098;51.680;5.134;2023-04-06T05:29:07;27.43;;;14.43;;
70545;SDS011;58098;51.680;5.134;2023-04-06T05:31:32;28.20;;;14.33;;
70545;SDS011;58098;51.680;5.134;2023-04-06T05:33:58;26.73;;;14.07;;
70545;SDS011;58098;51.680;5.134;2023-04-06T05:36:23;26.50;;;14.33;;
70545;SDS011;58098;51.680;5.134;2023-04-06T05:38:48;27.40;;;14.10;;
70545;SDS011;58098;51.680;5.134;2023-04-06T05:41:15;30.63;;;14.80;;
70545;SDS011;58098;51.680;5.134;2023-04-06T05:43:40;25.10;;;14.00;;
70545;SDS011;58098;51.680;5.134;2023-04-06T05:46:05;28.90;;;14.70;;
70545;SDS011;58098;51.680;5.134;2023-04-06T05:48:31;28.80;;;15.10;;
70545;SDS011;58098;51.680;5.134;2023-04-06T05:50:56;30.87;;;15.57;;
70545;SDS011;58098;51.680;5.134;2023-04-06T05:53:21;27.53;;;14.30;;
70545;SDS011;58098;51.680;5.134;2023-04-06T05:55:46;30.10;;;15.00;;
70545;SDS011;58098;51.680;5.134;2023-04-06T05:58:12;28.00;;;15.10;;
70545;SDS011;58098;51.680;5.134;2023-04-06T06:00:37;22.47;;;12.77;;
70545;SDS011;58098;51.680;5.134;2023-04-06T06:03:02;25.03;;;13.33;;
70545;SDS011;58098;51.680;5.134;2023-04-06T06:05:29;28.27;;;13.80;;
70545;SDS011;58098;51.680;5.134;2023-04-06T06:07:54;30.43;;;13.53;;
70545;SDS011;58098;51.680;5.134;2023-04-06T06:10:19;24.97;;;13.97;;
70545;SDS011;58098;51.680;5.134;2023-04-06T06:12:45;28.47;;;14.13;;
70545;SDS011;58098;51.680;5.134;2023-04-06T06:15:10;34.20;;;14.73;;
70545;SDS011;58098;51.680;5.134;2023-04-06T06:17:35;20.13;;;10.53;;
70545;SDS011;58098;51.680;5.134;2023-04-06T06:20:01;33.60;;;15.43;;
70545;SDS011;58098;51.680;5.134;2023-04-06T06:22:26;26.07;;;13.80;;
70545;SDS011;58098;51.680;5.134;2023-04-06T06:24:51;25.43;;;13.43;;
70545;SDS011;58098;51.680;5.134;2023-04-06T06:27:16;27.87;;;13.90;;
70545;SDS011;58098;51.680;5.134;2023-04-06T06:29:41;32.80;;;14.47;;
70545;SDS011;58098;51.680;5.134;2023-04-06T06:32:07;27.37;;;14.13;;
70545;SDS011;58098;51.680;5.134;2023-04-06T06:34:34;26.48;;;14.70;;
70545;SDS011;58098;51.680;5.134;2023-04-06T06:36:59;28.70;;;14.35;;
70545;SDS011;58098;51.680;5.134;2023-04-06T06:39:25;27.27;;;14.30;;
70545;SDS011;58098;51.680;5.134;2023-04-06T06:41:51;30.20;;;14.20;;
70545;SDS011;58098;51.680;5.134;2023-04-06T06:44:16;29.17;;;14.43;;
70545;SDS011;58098;51.680;5.134;2023-04-06T06:46:41;27.50;;;14.47;;
70545;SDS011;58098;51.680;5.134;2023-04-06T06:49:06;31.10;;;16.53;;
70545;SDS011;58098;51.680;5.134;2023-04-06T06:51:32;30.50;;;15.80;;
70545;SDS011;58098;51.680;5.134;2023-04-06T06:53:57;31.50;;;15.40;;
70545;SDS011;58098;51.680;5.134;2023-04-06T06:56:22;28.60;;;15.30;;
70545;SDS011;58098;51.680;5.134;2023-04-06T06:58:47;31.30;;;15.00;;
70545;SDS011;58098;51.680;5.134;2023-04-06T07:01:12;26.40;;;14.17;;
70545;SDS011;58098;51.680;5.134;2023-04-06T07:03:38;33.50;;;15.87;;
70545;SDS011;58098;51.680;5.134;2023-04-06T07:06:03;31.40;;;16.23;;
70545;SDS011;58098;51.680;5.134;2023-04-06T07:08:28;28.93;;;15.80;;
70545;SDS011;58098;51.680;5.134;2023-04-06T07:10:53;34.20;;;16.83;;
70545;SDS011;58098;51.680;5.134;2023-04-06T07:13:20;31.55;;;16.98;;
70545;SDS011;58098;51.680;5.134;2023-04-06T07:15:48;33.08;;;16.33;;
70545;SDS011;58098;51.680;5.134;2023-04-06T07:18:13;34.07;;;16.97;;
70545;SDS011;58098;51.680;5.134;2023-04-06T07:20:39;34.40;;;17.47;;
70545;SDS011;58098;51.680;5.134;2023-04-06T07:23:04;30.23;;;16.33;;
70545;SDS011;58098;51.680;5.134;2023-04-06T07:25:29;30.27;;;16.17;;
70545;SDS011;58098;51.680;5.134;2023-04-06T07:27:54;32.08;;;15.85;;
70545;SDS011;58098;51.680;5.134;2023-04-06T07:30:20;27.67;;;16.37;;
70545;SDS011;58098;51.680;5.134;2023-04-06T07:32:46;30.50;;;15.93;;
70545;SDS011;58098;51.680;5.134;2023-04-06T07:35:12;32.90;;;16.50;;
70545;SDS011;58098;51.680;5.134;2023-04-06T07:37:37;36.23;;;17.23;;
70545;SDS011;58098;51.680;5.134;2023-04-06T07:40:02;28.33;;;15.93;;
70545;SDS011;58098;51.680;5.134;2023-04-06T07:42:27;33.93;;;16.20;;
70545;SDS011;58098;51.680;5.134;2023-04-06T07:44:52;31.80;;;16.50;;
70545;SDS011;58098;51.680;5.134;2023-04-06T07:47:18;28.65;;;15.80;;
70545;SDS011;58098;51.680;5.134;2023-04-06T07:49:43;29.93;;;16.27;;
70545;SDS011;58098;51.680;5.134;2023-04-06T07:52:08;30.25;;;16.15;;
70545;SDS011;58098;51.680;5.134;2023-04-06T07:54:33;32.13;;;15.90;;
70545;SDS011;58098;51.680;5.134;2023-04-06T07:56:58;29.95;;;15.40;;
70545;SDS011;58098;51.680;5.134;2023-04-06T07:59:23;32.63;;;15.77;;
70545;SDS011;58098;51.680;5.134;2023-04-06T08:01:49;27.20;;;16.00;;
70545;SDS011;58098;51.680;5.134;2023-04-06T08:04:14;30.27;;;15.40;;
70545;SDS011;58098;51.680;5.134;2023-04-06T08:06:39;31.67;;;16.70;;
70545;SDS011;58098;51.680;5.134;2023-04-06T08:09:05;34.38;;;15.60;;
70545;SDS011;58098;51.680;5.134;2023-04-06T08:11:31;29.00;;;15.07;;
70545;SDS011;58098;51.680;5.134;2023-04-06T08:13:56;27.37;;;14.07;;
70545;SDS011;58098;51.680;5.134;2023-04-06T08:16:21;29.73;;;14.83;;
70545;SDS011;58098;51.680;5.134;2023-04-06T08:18:47;31.30;;;16.00;;
70545;SDS011;58098;51.680;5.134;2023-04-06T08:21:12;30.63;;;15.23;;
70545;SDS011;58098;51.680;5.134;2023-04-06T08:23:37;32.50;;;16.73;;
70545;SDS011;58098;51.680;5.134;2023-04-06T08:26:02;28.37;;;16.70;;
70545;SDS011;58098;51.680;5.134;2023-04-06T08:28:27;28.60;;;16.33;;
70545;SDS011;58098;51.680;5.134;2023-04-06T08:30:53;26.13;;;15.03;;
70545;SDS011;58098;51.680;5.134;2023-04-06T08:33:18;29.83;;;16.37;;
70545;SDS011;58098;51.680;5.134;2023-04-06T08:35:43;34.33;;;16.63;;
70545;SDS011;58098;51.680;5.134;2023-04-06T08:38:08;33.13;;;16.70;;
70545;SDS011;58098;51.680;5.134;2023-04-06T08:40:40;36.13;;;16.53;;
70545;SDS011;58098;51.680;5.134;2023-04-06T08:43:09;33.45;;;16.83;;
70545;SDS011;58098;51.680;5.134;2023-04-06T08:45:36;29.88;;;16.15;;
70545;SDS011;58098;51.680;5.134;2023-04-06T08:48:01;29.13;;;17.43;;
70545;SDS011;58098;51.680;5.134;2023-04-06T08:50:27;30.88;;;16.77;;
70545;SDS011;58098;51.680;5.134;2023-04-06T08:52:54;31.87;;;16.73;;
70545;SDS011;58098;51.680;5.134;2023-04-06T08:55:20;32.35;;;16.75;;
70545;SDS011;58098;51.680;5.134;2023-04-06T08:57:45;30.50;;;15.97;;
70545;SDS011;58098;51.680;5.134;2023-04-06T09:00:13;30.83;;;16.02;;
70545;SDS011;58098;51.680;5.134;2023-04-06T09:02:39;27.65;;;16.23;;
70545;SDS011;58098;51.680;5.134;2023-04-06T09:05:06;30.33;;;16.80;;
70545;SDS011;58098;51.680;5.134;2023-04-06T09:07:32;30.50;;;16.58;;
70545;SDS011;58098;51.680;5.134;2023-04-06T09:09:57;29.17;;;16.17;;
70545;SDS011;58098;51.680;5.134;2023-04-06T09:12:23;29.97;;;16.27;;
70545;SDS011;58098;51.680;5.134;2023-04-06T09:14:49;30.33;;;16.85;;
70545;SDS011;58098;51.680;5.134;2023-04-06T09:17:23;28.23;;;15.83;;
70545;SDS011;58098;51.680;5.134;2023-04-06T09:19:49;27.25;;;15.60;;
70545;SDS011;58098;51.680;5.134;2023-04-06T09:22:15;35.70;;;17.27;;
70545;SDS011;58098;51.680;5.134;2023-04-06T09:24:43;29.27;;;17.30;;
70545;SDS011;58098;51.680;5.134;2023-04-06T09:27:09;28.70;;;16.13;;
70545;SDS011;58098;51.680;5.134;2023-04-06T09:29:34;31.13;;;16.43;;
70545;SDS011;58098;51.680;5.134;2023-04-06T09:32:07;25.53;;;14.43;;
70545;SDS011;58098;51.680;5.134;2023-04-06T09:34:35;27.42;;;15.60;;
70545;SDS011;58098;51.680;5.134;2023-04-06T09:37:00;23.60;;;13.80;;
70545;SDS011;58098;51.680;5.134;2023-04-06T09:39:26;27.77;;;15.30;;
70545;SDS011;58098;51.680;5.134;2023-04-06T09:41:52;30.00;;;15.10;;
70545;SDS011;58098;51.680;5.134;2023-04-06T09:44:17;22.10;;;12.90;;
70545;SDS011;58098;51.680;5.134;2023-04-06T09:46:43;24.48;;;13.68;;
70545;SDS011;58098;51.680;5.134;2023-04-06T09:49:09;23.57;;;12.60;;
70545;SDS011;58098;51.680;5.134;2023-04-06T09:51:39;27.20;;;13.57;;
70545;SDS011;58098;51.680;5.134;2023-04-06T09:54:05;21.35;;;12.35;;
70545;SDS011;58098;51.680;5.134;2023-04-06T09:56:31;20.58;;;12.68;;
70545;SDS011;58098;51.680;5.134;2023-04-06T09:59:01;24.15;;;12.20;;
70545;SDS011;58098;51.680;5.134;2023-04-06T10:01:28;18.90;;;11.63;;
70545;SDS011;58098;51.680;5.134;2023-04-06T10:03:56;21.05;;;11.48;;
70545;SDS011;58098;51.680;5.134;2023-04-06T10:06:23;18.20;;;11.30;;
70545;SDS011;58098;51.680;5.134;2023-04-06T10:08:49;17.83;;;10.95;;
70545;SDS011;58098;51.680;5.134;2023-04-06T10:11:15;17.83;;;10.90;;
70545;SDS011;58098;51.680;5.134;2023-04-06T10:13:41;17.52;;;10.23;;
70545;SDS011;58098;51.680;5.134;2023-04-06T10:16:07;19.23;;;10.02;;
70545;SDS011;58098;51.680;5.134;2023-04-06T10:18:32;16.87;;;9.43;;
70545;SDS011;58098;51.680;5.134;2023-04-06T10:21:01;16.77;;;9.38;;
70545;SDS011;58098;51.680;5.134;2023-04-06T10:25:57;14.83;;;9.27;;
70545;SDS011;58098;51.680;5.134;2023-04-06T10:28:23;14.77;;;8.70;;
70545;SDS011;58098;51.680;5.134;2023-04-06T10:30:48;14.77;;;8.80;;
70545;SDS011;58098;51.680;5.134;2023-04-06T10:35:40;16.00;;;7.50;;
70545;SDS011;58098;51.680;5.134;2023-04-06T10:38:05;15.88;;;8.45;;
70545;SDS011;58098;51.680;5.134;2023-04-06T10:40:30;14.13;;;7.40;;
70545;SDS011;58098;51.680;5.134;2023-04-06T10:43:11;13.57;;;8.17;;
70545;SDS011;58098;51.680;5.134;2023-04-06T10:45:37;14.30;;;8.75;;
70545;SDS011;58098;51.680;5.134;2023-04-06T10:48:15;13.23;;;8.20;;
70545;SDS011;58098;51.680;5.134;2023-04-06T10:50:48;15.73;;;8.93;;
70545;SDS011;58098;51.680;5.134;2023-04-06T10:53:20;15.77;;;9.02;;
70545;SDS011;58098;51.680;5.134;2023-04-06T10:55:46;12.52;;;7.75;;
70545;SDS011;58098;51.680;5.134;2023-04-06T10:58:12;15.02;;;9.05;;
70545;SDS011;58098;51.680;5.134;2023-04-06T11:00:43;16.20;;;8.95;;
70545;SDS011;58098;51.680;5.134;2023-04-06T11:03:08;14.57;;;9.17;;
70545;SDS011;58098;51.680;5.134;2023-04-06T11:05:33;15.63;;;9.30;;
70545;SDS011;58098;51.680;5.134;2023-04-06T11:07:58;13.87;;;8.80;;
70545;SDS011;58098;51.680;5.134;2023-04-06T11:10:23;14.27;;;8.57;;
70545;SDS011;58098;51.680;5.134;2023-04-06T11:12:55;15.18;;;8.52;;
70545;SDS011;58098;51.680;5.134;2023-04-06T11:15:21;14.13;;;8.87;;
70545;SDS011;58098;51.680;5.134;2023-04-06T11:17:46;14.87;;;8.80;;
70545;SDS011;58098;51.680;5.134;2023-04-06T11:20:11;15.73;;;8.77;;
70545;SDS011;58098;51.680;5.134;2023-04-06T11:22:47;13.43;;;9.17;;
70545;SDS011;58098;51.680;5.134;2023-04-06T11:25:12;14.68;;;9.05;;
70545;SDS011;58098;51.680;5.134;2023-04-06T11:27:38;16.00;;;9.00;;
70545;SDS011;58098;51.680;5.134;2023-04-06T11:30:04;12.48;;;8.00;;
70545;SDS011;58098;51.680;5.134;2023-04-06T11:32:29;13.77;;;8.70;;
70545;SDS011;58098;51.680;5.134;2023-04-06T11:34:54;13.97;;;8.93;;
70545;SDS011;58098;51.680;5.134;2023-04-06T11:37:22;16.77;;;9.77;;
70545;SDS011;58098;51.680;5.134;2023-04-06T11:39:51;15.07;;;9.00;;
70545;SDS011;58098;51.680;5.134;2023-04-06T11:42:26;13.13;;;8.33;;
70545;SDS011;58098;51.680;5.134;2023-04-06T11:44:55;16.10;;;8.93;;
70545;SDS011;58098;51.680;5.134;2023-04-06T11:47:27;14.07;;;9.70;;
70545;SDS011;58098;51.680;5.134;2023-04-06T11:49:52;14.40;;;9.00;;
70545;SDS011;58098;51.680;5.134;2023-04-06T11:52:24;20.87;;;9.73;;
70545;SDS011;58098;51.680;5.134;2023-04-06T11:54:50;15.25;;;9.93;;
70545;SDS011;58098;51.680;5.134;2023-04-06T11:57:15;15.53;;;10.07;;
70545;SDS011;58098;51.680;5.134;2023-04-06T11:59:41;17.80;;;10.43;;
70545;SDS011;58098;51.680;5.134;2023-04-06T12:02:07;15.95;;;10.15;;
70545;SDS011;58098;51.680;5.134;2023-04-06T12:04:32;16.00;;;10.57;;
70545;SDS011;58098;51.680;5.134;2023-04-06T12:06:57;15.60;;;9.70;;
70545;SDS011;58098;51.680;5.134;2023-04-06T12:09:22;16.30;;;10.27;;
70545;SDS011;58098;51.680;5.134;2023-04-06T12:11:48;14.93;;;9.50;;
70545;SDS011;58098;51.680;5.134;2023-04-06T12:14:13;15.93;;;10.03;;
70545;SDS011;58098;51.680;5.134;2023-04-06T12:16:38;15.60;;;9.60;;
70545;SDS011;58098;51.680;5.134;2023-04-06T12:19:04;17.90;;;10.50;;
70545;SDS011;58098;51.680;5.134;2023-04-06T12:21:29;17.73;;;10.50;;
70545;SDS011;58098;51.680;5.134;2023-04-06T12:23:56;16.75;;;10.77;;
70545;SDS011;58098;51.680;5.134;2023-04-06T12:26:22;17.42;;;10.00;;
70545;SDS011;58098;51.680;5.134;2023-04-06T12:28:47;19.70;;;11.03;;
70545;SDS011;58098;51.680;5.134;2023-04-06T12:31:16;19.67;;;10.87;;
70545;SDS011;58098;51.680;5.134;2023-04-06T12:33:41;16.15;;;10.15;;
70545;SDS011;58098;51.680;5.134;2023-04-06T12:36:17;18.60;;;10.53;;
70545;SDS011;58098;51.680;5.134;2023-04-06T12:38:46;16.35;;;10.77;;
70545;SDS011;58098;51.680;5.134;2023-04-06T12:41:11;18.15;;;10.82;;
70545;SDS011;58098;51.680;5.134;2023-04-06T12:43:37;19.00;;;11.30;;
70545;SDS011;58098;51.680;5.134;2023-04-06T12:46:02;15.60;;;10.03;;
70545;SDS011;58098;51.680;5.134;2023-04-06T12:48:27;16.87;;;10.83;;
70545;SDS011;58098;51.680;5.134;2023-04-06T12:50:59;17.30;;;11.57;;
70545;SDS011;58098;51.680;5.134;2023-04-06T12:53:25;16.42;;;10.48;;
70545;SDS011;58098;51.680;5.134;2023-04-06T12:55:50;18.33;;;10.90;;
70545;SDS011;58098;51.680;5.134;2023-04-06T12:58:16;20.15;;;11.05;;
70545;SDS011;58098;51.680;5.134;2023-04-06T13:00:42;18.73;;;11.23;;
70545;SDS011;58098;51.680;5.134;2023-04-06T13:03:07;19.40;;;11.87;;
70545;SDS011;58098;51.680;5.134;2023-04-06T13:05:32;17.53;;;12.10;;
70545;SDS011;58098;51.680;5.134;2023-04-06T13:07:57;18.13;;;11.27;;
70545;SDS011;58098;51.680;5.134;2023-04-06T13:10:22;18.37;;;11.40;;
70545;SDS011;58098;51.680;5.134;2023-04-06T13:12:48;20.67;;;12.33;;
70545;SDS011;58098;51.680;5.134;2023-04-06T13:15:13;19.03;;;11.30;;
70545;SDS011;58098;51.680;5.134;2023-04-06T13:17:38;20.00;;;11.47;;
70545;SDS011;58098;51.680;5.134;2023-04-06T13:20:04;20.17;;;11.47;;
70545;SDS011;58098;51.680;5.134;2023-04-06T13:22:30;17.48;;;11.57;;
70545;SDS011;58098;51.680;5.134;2023-04-06T13:24:56;19.23;;;12.47;;
70545;SDS011;58098;51.680;5.134;2023-04-06T13:27:21;19.40;;;11.43;;
70545;SDS011;58098;51.680;5.134;2023-04-06T13:29:46;19.97;;;11.60;;
70545;SDS011;58098;51.680;5.134;2023-04-06T13:32:11;19.43;;;12.23;;
70545;SDS011;58098;51.680;5.134;2023-04-06T13:34:37;18.73;;;11.17;;
70545;SDS011;58098;51.680;5.134;2023-04-06T13:37:02;20.03;;;12.03;;
70545;SDS011;58098;51.680;5.134;2023-04-06T13:39:27;20.03;;;11.60;;
70545;SDS011;58098;51.680;5.134;2023-04-06T13:41:55;19.17;;;11.47;;
70545;SDS011;58098;51.680;5.134;2023-04-06T13:44:21;16.98;;;11.35;;
70545;SDS011;58098;51.680;5.134;2023-04-06T13:46:46;18.00;;;10.93;;
70545;SDS011;58098;51.680;5.134;2023-04-06T13:49:12;18.27;;;11.45;;
70545;SDS011;58098;51.680;5.134;2023-04-06T13:51:37;15.77;;;10.83;;
70545;SDS011;58098;51.680;5.134;2023-04-06T13:54:03;17.10;;;10.60;;
70545;SDS011;58098;51.680;5.134;2023-04-06T13:56:28;16.47;;;10.57;;
70545;SDS011;58098;51.680;5.134;2023-04-06T13:58:53;19.20;;;10.47;;
70545;SDS011;58098;51.680;5.134;2023-04-06T14:01:20;16.65;;;11.07;;
70545;SDS011;58098;51.680;5.134;2023-04-06T14:03:45;17.63;;;11.07;;
70545;SDS011;58098;51.680;5.134;2023-04-06T14:06:12;14.82;;;10.23;;
70545;SDS011;58098;51.680;5.134;2023-04-06T14:08:38;14.45;;;10.35;;
70545;SDS011;58098;51.680;5.134;2023-04-06T14:11:03;17.27;;;9.73;;
70545;SDS011;58098;51.680;5.134;2023-04-06T14:13:28;13.80;;;9.77;;
70545;SDS011;58098;51.680;5.134;2023-04-06T14:15:53;15.57;;;9.70;;
70545;SDS011;58098;51.680;5.134;2023-04-06T14:18:20;13.50;;;9.32;;
70545;SDS011;58098;51.680;5.134;2023-04-06T14:20:46;15.77;;;9.90;;